Crouse, North Carolina
Current Conditions -  °F | °C
As of 3:15 PM on Thursday 23 Oct 2014 (Local Time) from KIPJ Reporting Station
Clear Clear  
Wind Chill: 68°   Ceiling: Unl
Heat Index: 68°   Visibility: 10mi
Dew Point: 35°   Wind: 3mph
Humidity: 29%   Direction: 330°NNW
Pressure: 30.01"   Gusts: NA
Location:  35.42°N, 81.31°W
Report Text: KIPJ 231915Z AUTO 33003KT 10SM CLR 20/02 A3001 RMK AO2 T02020015
Loading
Personal Weather Stations






























Interactive Weather Map
Tropical Storm Tracking
New forecast layout! Learn more

10-Day Weather Forecast

Advertisements
Track Severe Weather on mobile